Andalusia, AL

7:55 PM CST on December 22, 2014 (GMT -0600)
Sikes | Change Station
CLOSE
Current Station
Airport
Location: Crestview,
Elevation: 213 ft
Nearby Weather Stations
Active Advisory: Flash Flood Watch

Elev 213 ft 30.78 °N, 86.52 °W | Updated 24 minutes ago

Overcast
Overcast
58 °F
Feels Like 58 °F
N
0
Wind Variable Wind from North

Today
High -- | Low -- °F
--% Chance of Precip.
Yesterday
High -- | Low -- °F
Precip. -- in
6:41 AM 4:49 PM
New Moon, 1% visible
Pressure 29.83 in
Visibility 0.5 miles
Clouds Few 300 ft
Overcast 1300 ft
Dew Point 57 °F
Humidity 97%
Rainfall 0.29 in
Snow Depth Not available.
UV 0 out of 12
Pollen 1.80 out of 12
Air Quality Not available.
Flu Activity Not available.
SPECI KCEW 230131Z AUTO 00000KT 1/2SM FG FEW003 OVC013 14/14 A2983 RMK AO2 T01440139

More Conditions Fewer Conditions

Pressure 29.83 in
Visibility 0.5 miles
Clouds Few 300 ft
Overcast 1300 ft
Dew Point 57 °F
Humidity 97%
Rainfall 0.29 in
Snow Depth Not available.
UV 0 out of 12
Pollen 1.80 out of 12
Air Quality Not available.
Flu Activity Not available.
SPECI KCEW 230131Z AUTO 00000KT 1/2SM FG FEW003 OVC013 14/14 A2983 RMK AO2 T01440139

More Conditions Fewer Conditions

10-Day Weather Forecast

Almanac

Astronomy

Dec. 22, 2014 Rise Set
Actual Time
Civil Twilight
Nautical Twilight
Astronomical Twilight
Moon
Length of Visible Light
Length of Day
Tomorrow will be .
, % of the Moon is Illuminated

Today's Extremes

State Highs State Lows

Community

WunderPhotos

Upload Photos

1,779,753 photos uploaded!

WunderBlogs® & News

Nearby

Air Quality

  Air Quality AQ Index Pollutant
Not available.

Snow Depth

Station Depth Elevation

Earthquake Activity

City Distance Mag. Time & Date
Minimum magnitude displayed is 2.5.

Coastal Water Temperatures

Place Temperature

Nearby Weather Stations